KHYW

Conway-Horry County Airport

Conway, South Carolina, USA
METAR KHYW 220935Z AUTO 00000KT 7SM CLR 18/18 A3013 RMK AO2
Observed Flight Rules
May-22 @ 09:35 UTC (35 minutes ago) Visual Flight Rules
Visibility Clouds
7 miles
  • Clear skies
Temperatures Readings
Current 18°C / 64°F
Dewpoint 18°C / 64°F
Humidity 100%
Altimeter 30.13" Hg
Pressure 1020 hPa
Elevation 11
METAR KHYW 220935Z AUTO 00000KT 7SM CLR 18/18 A3013 RMK AO2
Observed Flight Rules
May-22 @ 09:35 UTC
(35 minutes ago)
VFR
Clouds
  • Clear skies
Temperature Dewpoint
18°C / 64°F 18°C / 64°F
Humidity Altimeter Pressure
100% 30.13" Hg 1020 hPa